Time;durP1;ratioP1;P1;durP2;ratioP2;P2;SDS_P1;SDS_P2;PMS_P1;PMS_P2;Temp;Humidity;BMP_temperature;BMP_pressure;BME280_temperature;BME280_humidity;BME280_pressure;Samples;Min_cycle;Max_cycle;Signal;HPM_P1;HPM_P2
2022/09/11 00:00:04;;;;;;;;;;;;;;;;;;1045531;28;4273;-55
2022/09/11 00:00:37;;;;;;;;;;;;;;;;;;1048151;28;3603;-58
2022/09/11 00:01:28;;;;;;;;;;;;;;;;;;1041731;28;3896;-58
2022/09/11 00:01:58;;;;;;;;;;;;;;;;;;1041735;28;4118;-58
2022/09/11 00:02:28;;;;;;;;;;;;;;;;;;1040732;28;3370;-57
2022/09/11 00:02:59;;;;;;;;;;;;;;;;;;1045238;28;4118;-57
2022/09/11 00:03:30;;;;;;;;;;;;;;;;;;1040212;28;3905;-56
2022/09/11 00:04:01;;;;;;;;;;;;;;;;;;1043348;28;3906;-57
2022/09/11 00:04:32;;;;;;;;;;;;;;;;;;1040702;28;3552;-59
2022/09/11 00:05:02;;;;;;;;;;;;;;;;;;1044031;28;3821;-56
2022/09/11 00:05:38;;;;;;;;;;;;;;;;;;1046234;28;3732;-60
2022/09/11 00:06:10;;;;;;;;;;;;;;;;;;1046335;28;3863;-59
2022/09/11 00:06:40;;;;;;;;;;;;;;;;;;1050180;28;3734;-57
2022/09/11 00:07:10;;;;;;;;;;;;;;;;;;1047480;28;3921;-58
2022/09/11 00:07:41;;;;;;;;;;;;;;;;;;1046555;28;3774;-59
2022/09/11 00:08:12;;;;;;;;;;;;;;;;;;1045730;28;4064;-56
2022/09/11 00:08:43;;;;;;;;;;;;;;;;;;1047096;28;2356;-58
2022/09/11 00:09:13;;;;;;;;;;;;;;;;;;1046055;28;3923;-58
2022/09/11 00:09:43;;;;;;;;;;;;;;;;;;1047696;28;2338;-57
2022/09/11 00:10:16;;;;;;;;;;;;;;;;;;1042192;28;3924;-58
2022/09/11 00:10:47;;;;;;;;;;;;;;;;;;1044751;28;2331;-59
2022/09/11 00:11:19;;;;;;;;;;;;;;;;;;1041079;28;3917;-57
2022/09/11 00:11:49;;;;;;;;;;;;;;;;;;1048886;28;2201;-56
2022/09/11 00:12:20;;;;;;;;;;;;;;;;;;1048844;28;5232;-58
2022/09/11 00:12:51;;;;;;;;;;;;;;;;;;1049513;28;2363;-58
2022/09/11 00:13:22;;;;;;;;;;;;;;;;;;1046830;28;4064;-58
2022/09/11 00:13:53;;;;;;;;;;;;;;;;;;1043285;28;3419;-59
2022/09/11 00:14:27;;;;;;;;;;;;;;;;;;1042374;28;4107;-56
2022/09/11 00:14:59;;;;;;;;;;;;;;;;;;1039453;28;4832;-58
2022/09/11 00:15:29;;;;;;;;;;;;;;;;;;1042418;28;2487;-57
2022/09/11 00:16:01;;;;;;;;;;;;;;;;;;1040307;28;3886;-58
2022/09/11 00:16:33;;;;;;;;;;;;;;;;;;1043796;28;3304;-57
2022/09/11 00:17:04;;;;;;;;;;;;;;;;;;1043838;28;3946;-57
2022/09/11 00:17:34;;;;;;;;;;;;;;;;;;1048608;28;3877;-58
2022/09/11 00:18:05;;;;;;;;;;;;;;;;;;1043332;28;3895;-57
2022/09/11 00:18:35;;;;;;;;;;;;;;;;;;1048338;28;3413;-57
2022/09/11 00:19:07;;;;;;;;;;;;;;;;;;1043286;28;3899;-55
2022/09/11 00:19:41;;;;;;;;;;;;;;;;;;1047882;28;3393;-56
2022/09/11 00:20:11;;;;;;;;;;;;;;;;;;1044339;28;4273;-59
2022/09/11 00:20:52;;;;;;;;;;;;;;;;;;1047420;28;3825;-58
2022/09/11 00:21:22;;;;;;;;;;;;;;;;;;1042249;28;3895;-59
2022/09/11 00:21:55;;;;;;;;;;;;;;;;;;1048032;28;2790;-57
2022/09/11 00:22:26;;;;;;;;;;;;;;;;;;1045458;28;3903;-58
2022/09/11 00:22:57;;;;;;;;;;;;;;;;;;1044184;28;4111;-54
2022/09/11 00:23:28;;;;;;;;;;;;;;;;;;1037548;28;3316;-57
2022/09/11 00:23:59;;;;;;;;;;;;;;;;;;1038954;28;4444;-54
2022/09/11 00:24:29;;;;;;;;;;;;;;;;;;1034642;28;3357;-56
2022/09/11 00:24:59;;;;;;;;;;;;;;;;;;1038273;28;3994;-58
2022/09/11 00:25:34;;;;;;;;;;;;;;;;;;1041744;28;2770;-56
2022/09/11 00:26:05;;;;;;;;;;;;;;;;;;1037506;28;3919;-55
2022/09/11 00:26:36;;;;;;;;;;;;;;;;;;1042581;28;3938;-58
2022/09/11 00:27:06;;;;;;;;;;;;;;;;;;1039907;28;4027;-59
2022/09/11 00:27:37;;;;;;;;;;;;;;;;;;1040687;28;3124;-57
2022/09/11 00:28:22;;;;;;;;;;;;;;;;;;1045187;28;4057;-56
2022/09/11 00:29:00;;;;;;;;;;;;;;;;;;1042795;28;3326;-57
2022/09/11 00:29:37;;;;;;;;;;;;;;;;;;1044379;28;4079;-58
2022/09/11 00:30:07;;;;;;;;;;;;;;;;;;1042798;28;4554;-58
2022/09/11 00:30:38;;;;;;;;;;;;;;;;;;1044960;28;3602;-56
2022/09/11 00:31:17;;;;;;;;;;;;;;;;;;1046822;28;4053;-57
2022/09/11 00:31:48;;;;;;;;;;;;;;;;;;1047720;28;1691;-57
2022/09/11 00:32:18;;;;;;;;;;;;;;;;;;1045402;28;3792;-57
2022/09/11 00:32:49;;;;;;;;;;;;;;;;;;1044624;28;3041;-59
2022/09/11 00:33:19;;;;;;;;;;;;;;;;;;1042816;28;3892;-59
2022/09/11 00:33:50;;;;;;;;;;;;;;;;;;1044710;28;1843;-57
2022/09/11 00:34:20;;;;;;;;;;;;;;;;;;1042804;28;4168;-57
2022/09/11 00:34:51;;;;;;;;;;;;;;;;;;1047314;28;3145;-58
2022/09/11 00:35:21;;;;;;;;;;;;;;;;;;1047404;28;4072;-58
2022/09/11 00:35:57;;;;;;;;;;;;;;;;;;1047746;28;2723;-58
2022/09/11 00:36:30;;;;;;;;;;;;;;;;;;1048120;28;3847;-57
2022/09/11 00:37:08;;;;;;;;;;;;;;;;;;1045903;28;4081;-57
2022/09/11 00:37:38;;;;;;;;;;;;;;;;;;1047537;28;3361;-57
2022/09/11 00:38:08;;;;;;;;;;;;;;;;;;1040809;28;4085;-57
2022/09/11 00:38:39;;;;;;;;;;;;;;;;;;1045984;28;3364;-55
2022/09/11 00:39:11;;;;;;;;;;;;;;;;;;1042762;28;3995;-57
2022/09/11 00:39:41;;;;;;;;;;;;;;;;;;1040783;28;4405;-58
2022/09/11 00:40:14;;;;;;;;;;;;;;;;;;1043325;28;3809;-57
2022/09/11 00:40:45;;;;;;;;;;;;;;;;;;1045364;28;1913;-61
2022/09/11 00:41:17;;;;;;;;;;;;;;;;;;1045159;28;4028;-56
2022/09/11 00:41:48;;;;;;;;;;;;;;;;;;1047624;28;1649;-56
2022/09/11 00:42:19;;;;;;;;;;;;;;;;;;1046596;28;3895;-53
2022/09/11 00:42:52;;;;;;;;;;;;;;;;;;1042709;28;2241;-55
2022/09/11 00:43:23;;;;;;;;;;;;;;;;;;1043375;28;4071;-54
2022/09/11 00:43:58;;;;;;;;;;;;;;;;;;1041090;28;3806;-57
2022/09/11 00:44:28;;;;;;;;;;;;;;;;;;1034849;28;3896;-56
2022/09/11 00:45:00;;;;;;;;;;;;;;;;;;1041200;28;4061;-55
2022/09/11 00:45:31;;;;;;;;;;;;;;;;;;1040389;28;4249;-55
2022/09/11 00:46:03;;;;;;;;;;;;;;;;;;1044436;28;3913;-58
2022/09/11 00:46:33;;;;;;;;;;;;;;;;;;1049059;28;3946;-55
2022/09/11 00:47:08;;;;;;;;;;;;;;;;;;1045726;28;4057;-58
2022/09/11 00:47:39;;;;;;;;;;;;;;;;;;1049817;28;3181;-58
2022/09/11 00:48:12;;;;;;;;;;;;;;;;;;1045070;28;4098;-57
2022/09/11 00:48:48;;;;;;;;;;;;;;;;;;1037572;28;3528;-58
2022/09/11 00:49:27;;;;;;;;;;;;;;;;;;1030647;28;4091;-57
2022/09/11 00:50:02;;;;;;;;;;;;;;;;;;1030729;28;4262;-55
2022/09/11 00:50:32;;;;;;;;;;;;;;;;;;1039294;28;4376;-57
2022/09/11 00:51:03;;;;;;;;;;;;;;;;;;1044302;28;4222;-59
2022/09/11 00:51:34;;;;;;;;;;;;;;;;;;1049376;28;3739;-56
2022/09/11 00:52:07;;;;;;;;;;;;;;;;;;1045253;28;4065;-57
2022/09/11 00:52:39;;;;;;;;;;;;;;;;;;1049344;28;2911;-55
2022/09/11 00:53:13;;;;;;;;;;;;;;;;;;1046714;28;4156;-57
2022/09/11 00:53:43;;;;;;;;;;;;;;;;;;1048787;28;2102;-55
2022/09/11 00:54:15;;;;;;;;;;;;;;;;;;1046915;28;4042;-57
2022/09/11 00:54:48;;;;;;;;;;;;;;;;;;1048325;28;1658;-57
2022/09/11 00:55:21;;;;;;;;;;;;;;;;;;1041693;28;4321;-56
2022/09/11 00:55:54;;;;;;;;;;;;;;;;;;1042383;28;2738;-55
2022/09/11 00:56:27;;;;;;;;;;;;;;;;;;1035731;28;3853;-56
2022/09/11 00:56:59;;;;;;;;;;;;;;;;;;1038742;28;4114;-57
2022/09/11 00:57:31;;;;;;;;;;;;;;;;;;1042744;28;3672;-56
2022/09/11 00:58:03;;;;;;;;;;;;;;;;;;1045038;28;3884;-57
2022/09/11 00:58:37;;;;;;;;;;;;;;;;;;1044171;28;2976;-58
2022/09/11 00:59:08;;;;;;;;;;;;;;;;;;1041561;28;4109;-59
2022/09/11 00:59:40;;;;;;;;;;;;;;;;;;1044892;28;3884;-57
2022/09/11 01:00:12;;;;;;;;;;;;;;;;;;1041013;28;3930;-56
2022/09/11 01:00:50;;;;;;;;;;;;;;;;;;1046837;28;3450;-56
2022/09/11 01:01:21;;;;;;;;;;;;;;;;;;1046566;28;4080;-57
2022/09/11 01:01:52;;;;;;;;;;;;;;;;;;1047531;28;2918;-57
2022/09/11 01:02:29;;;;;;;;;;;;;;;;;;1047008;28;4033;-56
2022/09/11 01:03:00;;;;;;;;;;;;;;;;;;1047408;28;4057;-57
2022/09/11 01:03:31;;;;;;;;;;;;;;;;;;1047445;28;2846;-59
2022/09/11 01:04:03;;;;;;;;;;;;;;;;;;1046675;28;3878;-58
2022/09/11 01:04:33;;;;;;;;;;;;;;;;;;1048001;28;3826;-58
2022/09/11 01:05:04;;;;;;;;;;;;;;;;;;1047788;28;4064;-55
2022/09/11 01:05:35;;;;;;;;;;;;;;;;;;1047804;28;2962;-55
2022/09/11 01:06:06;;;;;;;;;;;;;;;;;;1046834;28;4201;-58
2022/09/11 01:06:37;;;;;;;;;;;;;;;;;;1046790;28;3137;-54
2022/09/11 01:07:07;;;;;;;;;;;;;;;;;;1046704;28;3901;-57
2022/09/11 01:07:39;;;;;;;;;;;;;;;;;;1046186;28;3218;-57
2022/09/11 01:08:10;;;;;;;;;;;;;;;;;;1046293;28;4100;-55
2022/09/11 01:08:40;;;;;;;;;;;;;;;;;;1047485;28;2590;-57
2022/09/11 01:09:10;;;;;;;;;;;;;;;;;;1047356;28;3913;-58
2022/09/11 01:09:41;;;;;;;;;;;;;;;;;;1046931;28;3839;-52
2022/09/11 01:10:12;;;;;;;;;;;;;;;;;;1045789;28;4264;-56
2022/09/11 01:10:43;;;;;;;;;;;;;;;;;;1047349;28;3467;-57
2022/09/11 01:11:20;;;;;;;;;;;;;;;;;;1046139;28;3941;-52
2022/09/11 01:12:02;;;;;;;;;;;;;;;;;;1047287;28;2602;-58
2022/09/11 01:12:42;;;;;;;;;;;;;;;;;;1046770;28;3990;-55
2022/09/11 01:13:24;;;;;;;;;;;;;;;;;;1046035;28;3891;-56
2022/09/11 01:14:06;;;;;;;;;;;;;;;;;;1046499;28;3265;-54
2022/09/11 01:14:40;;;;;;;;;;;;;;;;;;1048163;28;3819;-57
2022/09/11 01:15:14;;;;;;;;;;;;;;;;;;1046317;28;4252;-57
2022/09/11 01:15:49;;;;;;;;;;;;;;;;;;1047159;28;3718;-59
2022/09/11 01:16:38;;;;;;;;;;;;;;;;;;1041744;28;4042;-54
2022/09/11 01:17:17;;;;;;;;;;;;;;;;;;1040190;28;4219;-56
2022/09/11 01:17:53;;;;;;;;;;;;;;;;;;1040642;28;2017;-54
2022/09/11 01:18:25;;;;;;;;;;;;;;;;;;1042035;28;3819;-58
2022/09/11 01:19:21;;;;;;;;;;;;;;;;;;1046020;28;2098;-58
2022/09/11 01:19:57;;;;;;;;;;;;;;;;;;1048135;28;3890;-57
2022/09/11 01:20:28;;;;;;;;;;;;;;;;;;1048023;28;3945;-55
2022/09/11 01:21:17;;;;;;;;;;;;;;;;;;1044527;28;4167;-57
2022/09/11 01:21:51;;;;;;;;;;;;;;;;;;1045491;28;2628;-56
2022/09/11 01:22:34;;;;;;;;;;;;;;;;;;1044594;28;4078;-58
2022/09/11 01:23:21;;;;;;;;;;;;;;;;;;1046437;28;3958;-57
2022/09/11 01:24:21;;;;;;;;;;;;;;;;;;1047844;28;3926;-57
2022/09/11 01:24:55;;;;;;;;;;;;;;;;;;1035409;28;3954;-58
2022/09/11 01:25:34;;;;;;;;;;;;;;;;;;1040339;28;3907;-54
2022/09/11 01:26:21;;;;;;;;;;;;;;;;;;1038335;28;3910;-57
2022/09/11 01:27:07;;;;;;;;;;;;;;;;;;1048907;28;2659;-55
2022/09/11 01:27:42;;;;;;;;;;;;;;;;;;1052034;28;3841;-58
2022/09/11 01:28:15;;;;;;;;;;;;;;;;;;1047292;28;3975;-57
2022/09/11 01:29:17;;;;;;;;;;;;;;;;;;1040791;28;3043;-56
2022/09/11 01:29:51;;;;;;;;;;;;;;;;;;1041829;28;3945;-56
2022/09/11 01:30:23;;;;;;;;;;;;;;;;;;1030568;28;4033;-58
2022/09/11 01:31:03;;;;;;;;;;;;;;;;;;1032634;28;3798;-55
2022/09/11 01:31:39;;;;;;;;;;;;;;;;;;1036414;28;2985;-58
2022/09/11 01:32:15;;;;;;;;;;;;;;;;;;1035864;28;3876;-55
2022/09/11 01:32:46;;;;;;;;;;;;;;;;;;1035298;28;1689;-56
2022/09/11 01:33:28;;;;;;;;;;;;;;;;;;1034385;28;4078;-57
2022/09/11 01:34:08;;;;;;;;;;;;;;;;;;1038539;28;4114;-56
2022/09/11 01:34:43;;;;;;;;;;;;;;;;;;1039213;28;3098;-55
2022/09/11 01:35:19;;;;;;;;;;;;;;;;;;1038035;28;4120;-57
2022/09/11 01:35:53;;;;;;;;;;;;;;;;;;1042578;28;3215;-58
2022/09/11 01:36:28;;;;;;;;;;;;;;;;;;1038700;28;4048;-53
2022/09/11 01:37:11;;;;;;;;;;;;;;;;;;1040639;28;4182;-58
2022/09/11 01:37:56;;;;;;;;;;;;;;;;;;1040163;28;3429;-58
2022/09/11 01:38:30;;;;;;;;;;;;;;;;;;1038370;28;3994;-57
2022/09/11 01:39:01;;;;;;;;;;;;;;;;;;1041187;28;4021;-57
2022/09/11 01:39:37;;;;;;;;;;;;;;;;;;1039550;28;3501;-59
2022/09/11 01:40:28;;;;;;;;;;;;;;;;;;1038404;28;3893;-59
2022/09/11 01:41:04;;;;;;;;;;;;;;;;;;1039292;28;4090;-56
2022/09/11 01:41:47;;;;;;;;;;;;;;;;;;1039511;28;2897;-56
2022/09/11 01:42:21;;;;;;;;;;;;;;;;;;1039600;28;3818;-55
2022/09/11 01:42:53;;;;;;;;;;;;;;;;;;1039805;28;3744;-58
2022/09/11 01:43:25;;;;;;;;;;;;;;;;;;1039883;28;3891;-58
2022/09/11 01:44:16;;;;;;;;;;;;;;;;;;1040880;28;2873;-57
2022/09/11 01:44:51;;;;;;;;;;;;;;;;;;1039460;28;3954;-59
2022/09/11 01:45:24;;;;;;;;;;;;;;;;;;1039556;28;4241;-56
2022/09/11 01:45:56;;;;;;;;;;;;;;;;;;1039694;28;2988;-56
2022/09/11 01:46:27;;;;;;;;;;;;;;;;;;1038881;28;3764;-57
2022/09/11 01:46:57;;;;;;;;;;;;;;;;;;1037368;28;4079;-56
2022/09/11 01:47:29;;;;;;;;;;;;;;;;;;1040276;28;3729;-55
2022/09/11 01:47:59;;;;;;;;;;;;;;;;;;1037189;28;3956;-56
2022/09/11 01:48:43;;;;;;;;;;;;;;;;;;1037096;28;2995;-57
2022/09/11 01:49:32;;;;;;;;;;;;;;;;;;1035308;28;3961;-58
2022/09/11 01:50:05;;;;;;;;;;;;;;;;;;1039417;28;3894;-56
2022/09/11 01:50:37;;;;;;;;;;;;;;;;;;1046436;28;4012;-60
2022/09/11 01:51:11;;;;;;;;;;;;;;;;;;1047694;28;3940;-56
2022/09/11 01:51:41;;;;;;;;;;;;;;;;;;1045718;28;3628;-58
2022/09/11 01:52:16;;;;;;;;;;;;;;;;;;1039688;28;4056;-56
2022/09/11 01:52:49;;;;;;;;;;;;;;;;;;1036666;28;2639;-58
2022/09/11 01:53:21;;;;;;;;;;;;;;;;;;1032860;28;4073;-55
2022/09/11 01:53:52;;;;;;;;;;;;;;;;;;1037003;28;3729;-56
2022/09/11 01:54:27;;;;;;;;;;;;;;;;;;1040929;28;4043;-53
2022/09/11 01:55:04;;;;;;;;;;;;;;;;;;1039499;28;3909;-55
2022/09/11 01:55:38;;;;;;;;;;;;;;;;;;1040559;28;2598;-58
2022/09/11 01:56:12;;;;;;;;;;;;;;;;;;1037667;28;3923;-54
2022/09/11 01:56:47;;;;;;;;;;;;;;;;;;1041268;28;3889;-59
2022/09/11 01:57:25;;;;;;;;;;;;;;;;;;1047583;28;4041;-56
2022/09/11 01:58:00;;;;;;;;;;;;;;;;;;1048115;28;3761;-58
2022/09/11 01:58:35;;;;;;;;;;;;;;;;;;1047084;28;3851;-55
2022/09/11 01:59:07;;;;;;;;;;;;;;;;;;1041389;28;3901;-57
2022/09/11 01:59:59;;;;;;;;;;;;;;;;;;1040832;28;3875;-55
2022/09/11 02:00:35;;;;;;;;;;;;;;;;;;1036044;28;3812;-55
2022/09/11 02:01:08;;;;;;;;;;;;;;;;;;1039986;28;4047;-58
2022/09/11 02:01:41;;;;;;;;;;;;;;;;;;1041619;28;3125;-56
2022/09/11 02:02:12;;;;;;;;;;;;;;;;;;1038274;28;4125;-58
2022/09/11 02:02:45;;;;;;;;;;;;;;;;;;1040955;28;4312;-59
2022/09/11 02:03:18;;;;;;;;;;;;;;;;;;1039949;28;4159;-57
2022/09/11 02:03:51;;;;;;;;;;;;;;;;;;1040894;28;3651;-56
2022/09/11 02:04:26;;;;;;;;;;;;;;;;;;1038894;28;4038;-57
2022/09/11 02:05:02;;;;;;;;;;;;;;;;;;1041245;28;2861;-57
2022/09/11 02:05:35;;;;;;;;;;;;;;;;;;1039594;28;4005;-55
2022/09/11 02:06:11;;;;;;;;;;;;;;;;;;1038263;28;3943;-57
2022/09/11 02:06:51;;;;;;;;;;;;;;;;;;1041093;28;3250;-57
2022/09/11 02:07:24;;;;;;;;;;;;;;;;;;1037825;28;4022;-57
2022/09/11 02:08:01;;;;;;;;;;;;;;;;;;1040691;28;2729;-59
2022/09/11 02:08:38;;;;;;;;;;;;;;;;;;1044812;28;3864;-56
2022/09/11 02:09:10;;;;;;;;;;;;;;;;;;1042084;28;3870;-57
2022/09/11 02:09:45;;;;;;;;;;;;;;;;;;1044149;28;3559;-56
2022/09/11 02:10:18;;;;;;;;;;;;;;;;;;1042387;28;3943;-57
2022/09/11 02:10:52;;;;;;;;;;;;;;;;;;1035449;28;3699;-57
2022/09/11 02:11:23;;;;;;;;;;;;;;;;;;1035359;28;3921;-57
2022/09/11 02:11:54;;;;;;;;;;;;;;;;;;1038351;28;2127;-58
2022/09/11 02:12:26;;;;;;;;;;;;;;;;;;1035798;28;4040;-54
2022/09/11 02:13:13;;;;;;;;;;;;;;;;;;1039850;28;2842;-58
2022/09/11 02:13:50;;;;;;;;;;;;;;;;;;1041100;28;3716;-56
2022/09/11 02:14:29;;;;;;;;;;;;;;;;;;1038617;28;3865;-57
2022/09/11 02:15:00;;;;;;;;;;;;;;;;;;1039670;28;3920;-57
2022/09/11 02:15:32;;;;;;;;;;;;;;;;;;1039005;28;1823;-58
2022/09/11 02:16:11;;;;;;;;;;;;;;;;;;1040514;28;4105;-58
2022/09/11 02:16:56;;;;;;;;;;;;;;;;;;1040645;28;3681;-57
2022/09/11 02:17:47;;;;;;;;;;;;;;;;;;1038775;28;3996;-58
2022/09/11 02:18:23;;;;;;;;;;;;;;;;;;1037800;28;3959;-54
2022/09/11 02:18:57;;;;;;;;;;;;;;;;;;1040598;28;3787;-57
2022/09/11 02:19:28;;;;;;;;;;;;;;;;;;1039951;28;3726;-58
2022/09/11 02:19:59;;;;;;;;;;;;;;;;;;1039802;28;4073;-57
2022/09/11 02:20:30;;;;;;;;;;;;;;;;;;1038559;28;3855;-57
2022/09/11 02:21:07;;;;;;;;;;;;;;;;;;1037404;28;4098;-59
2022/09/11 02:21:37;;;;;;;;;;;;;;;;;;1040197;28;3834;-57
2022/09/11 02:22:08;;;;;;;;;;;;;;;;;;1037228;28;3968;-56
2022/09/11 02:22:39;;;;;;;;;;;;;;;;;;1040043;28;3086;-57
2022/09/11 02:23:10;;;;;;;;;;;;;;;;;;1037594;28;3906;-57
2022/09/11 02:23:41;;;;;;;;;;;;;;;;;;1041287;28;1630;-57
2022/09/11 02:24:11;;;;;;;;;;;;;;;;;;1034809;28;3997;-52
2022/09/11 02:24:41;;;;;;;;;;;;;;;;;;1037665;28;3079;-55
2022/09/11 02:25:12;;;;;;;;;;;;;;;;;;1035047;28;3930;-56
2022/09/11 02:25:42;;;;;;;;;;;;;;;;;;1037217;28;4349;-57
2022/09/11 02:26:13;;;;;;;;;;;;;;;;;;1036302;28;3902;-58
2022/09/11 02:26:46;;;;;;;;;;;;;;;;;;1040152;28;2113;-58
2022/09/11 02:27:19;;;;;;;;;;;;;;;;;;1037851;28;3899;-56
2022/09/11 02:27:50;;;;;;;;;;;;;;;;;;1039479;28;3452;-58
2022/09/11 02:28:27;;;;;;;;;;;;;;;;;;1041388;28;5092;-57
2022/09/11 02:29:05;;;;;;;;;;;;;;;;;;1045597;28;3917;-56
2022/09/11 02:29:42;;;;;;;;;;;;;;;;;;1048123;28;3781;-56
2022/09/11 02:30:13;;;;;;;;;;;;;;;;;;1044628;28;4082;-57
2022/09/11 02:30:44;;;;;;;;;;;;;;;;;;1048458;28;2973;-54
2022/09/11 02:31:15;;;;;;;;;;;;;;;;;;1046216;28;4145;-59
2022/09/11 02:31:47;;;;;;;;;;;;;;;;;;1035560;28;2223;-57
2022/09/11 02:32:17;;;;;;;;;;;;;;;;;;1035084;28;3912;-59
2022/09/11 02:32:48;;;;;;;;;;;;;;;;;;1040626;28;3366;-58
2022/09/11 02:33:28;;;;;;;;;;;;;;;;;;1040413;28;3907;-58
2022/09/11 02:33:59;;;;;;;;;;;;;;;;;;1050823;28;4163;-55
2022/09/11 02:34:34;;;;;;;;;;;;;;;;;;1051052;28;2954;-58
2022/09/11 02:35:05;;;;;;;;;;;;;;;;;;1039246;28;4112;-56
2022/09/11 02:35:39;;;;;;;;;;;;;;;;;;1040889;28;2858;-58
2022/09/11 02:36:10;;;;;;;;;;;;;;;;;;1039163;28;4105;-54
2022/09/11 02:36:50;;;;;;;;;;;;;;;;;;1039005;28;3283;-57
2022/09/11 02:37:35;;;;;;;;;;;;;;;;;;1044298;28;4047;-56
2022/09/11 02:38:17;;;;;;;;;;;;;;;;;;1043267;28;4093;-55
2022/09/11 02:38:53;;;;;;;;;;;;;;;;;;1048643;28;3323;-58
2022/09/11 02:39:35;;;;;;;;;;;;;;;;;;1047892;28;4078;-56
2022/09/11 02:40:10;;;;;;;;;;;;;;;;;;1045893;28;4096;-57
2022/09/11 02:40:45;;;;;;;;;;;;;;;;;;1043894;28;3263;-54
2022/09/11 02:41:18;;;;;;;;;;;;;;;;;;1042533;28;4103;-57
2022/09/11 02:42:07;;;;;;;;;;;;;;;;;;1043723;28;3679;-55
2022/09/11 02:42:51;;;;;;;;;;;;;;;;;;1048244;28;3694;-56
2022/09/11 02:43:31;;;;;;;;;;;;;;;;;;1048622;28;4096;-59
2022/09/11 02:44:07;;;;;;;;;;;;;;;;;;1047442;28;4080;-55
2022/09/11 02:44:43;;;;;;;;;;;;;;;;;;1049579;28;3202;-56
2022/09/11 02:45:34;;;;;;;;;;;;;;;;;;1046644;28;4083;-57
2022/09/11 02:46:17;;;;;;;;;;;;;;;;;;1048319;28;3979;-59
2022/09/11 02:47:04;;;;;;;;;;;;;;;;;;1048778;28;1761;-59
2022/09/11 02:47:34;;;;;;;;;;;;;;;;;;1046583;28;3991;-59
2022/09/11 02:48:23;;;;;;;;;;;;;;;;;;1047689;28;4054;-56
2022/09/11 02:48:59;;;;;;;;;;;;;;;;;;1048463;28;3111;-58
2022/09/11 02:49:38;;;;;;;;;;;;;;;;;;1037288;28;3777;-56
2022/09/11 02:50:17;;;;;;;;;;;;;;;;;;1040332;28;3950;-57
2022/09/11 02:50:51;;;;;;;;;;;;;;;;;;1042062;28;2529;-58
2022/09/11 02:51:28;;;;;;;;;;;;;;;;;;1045409;28;4062;-55
2022/09/11 02:52:19;;;;;;;;;;;;;;;;;;1046687;28;3917;-58
2022/09/11 02:53:08;;;;;;;;;;;;;;;;;;1048569;28;1686;-57
2022/09/11 02:53:42;;;;;;;;;;;;;;;;;;1048646;28;3749;-58
2022/09/11 02:54:24;;;;;;;;;;;;;;;;;;1042986;28;3918;-58
2022/09/11 02:55:00;;;;;;;;;;;;;;;;;;1039960;28;2883;-54
2022/09/11 02:55:31;;;;;;;;;;;;;;;;;;1036212;28;3774;-58
2022/09/11 02:56:14;;;;;;;;;;;;;;;;;;1044707;28;4202;-56
2022/09/11 02:56:51;;;;;;;;;;;;;;;;;;1048980;28;3237;-50
2022/09/11 02:57:28;;;;;;;;;;;;;;;;;;1046342;28;4050;-57
2022/09/11 02:58:08;;;;;;;;;;;;;;;;;;1048157;28;3939;-58
2022/09/11 02:59:00;;;;;;;;;;;;;;;;;;1047497;28;3871;-58
2022/09/11 02:59:34;;;;;;;;;;;;;;;;;;1044407;28;4054;-57
2022/09/11 03:00:06;;;;;;;;;;;;;;;;;;1040037;28;4034;-56
2022/09/11 03:00:38;;;;;;;;;;;;;;;;;;1030422;28;4123;-58
2022/09/11 03:01:08;;;;;;;;;;;;;;;;;;1030911;28;4104;-57
2022/09/11 03:01:50;;;;;;;;;;;;;;;;;;1034988;28;3939;-57
2022/09/11 03:02:22;;;;;;;;;;;;;;;;;;1039809;28;4061;-57
2022/09/11 03:02:52;;;;;;;;;;;;;;;;;;1045756;28;3815;-57
2022/09/11 03:03:22;;;;;;;;;;;;;;;;;;1047058;28;4081;-57
2022/09/11 03:03:53;;;;;;;;;;;;;;;;;;1048813;28;3009;-59
2022/09/11 03:04:23;;;;;;;;;;;;;;;;;;1047239;28;3867;-58
2022/09/11 03:04:55;;;;;;;;;;;;;;;;;;1042396;28;2835;-56
2022/09/11 03:05:27;;;;;;;;;;;;;;;;;;1042188;28;3843;-58
2022/09/11 03:05:58;;;;;;;;;;;;;;;;;;1043562;28;3970;-58
2022/09/11 03:06:28;;;;;;;;;;;;;;;;;;1044139;28;3212;-57
2022/09/11 03:06:58;;;;;;;;;;;;;;;;;;1047066;28;3951;-59
2022/09/11 03:07:28;;;;;;;;;;;;;;;;;;1047443;28;3367;-55
2022/09/11 03:07:59;;;;;;;;;;;;;;;;;;1046265;28;3792;-57
2022/09/11 03:08:31;;;;;;;;;;;;;;;;;;1048139;28;5251;-59
2022/09/11 03:09:02;;;;;;;;;;;;;;;;;;1043869;28;3932;-59
2022/09/11 03:09:33;;;;;;;;;;;;;;;;;;1045376;28;2919;-52
2022/09/11 03:10:04;;;;;;;;;;;;;;;;;;1040629;28;3991;-57
2022/09/11 03:10:34;;;;;;;;;;;;;;;;;;1048854;28;2968;-58
2022/09/11 03:11:04;;;;;;;;;;;;;;;;;;1049376;28;4007;-56
2022/09/11 03:11:35;;;;;;;;;;;;;;;;;;1051255;28;3427;-59
2022/09/11 03:12:05;;;;;;;;;;;;;;;;;;1049124;28;3966;-58
2022/09/11 03:12:35;;;;;;;;;;;;;;;;;;1042482;28;4202;-59
2022/09/11 03:13:06;;;;;;;;;;;;;;;;;;1042625;28;3843;-57
2022/09/11 03:13:36;;;;;;;;;;;;;;;;;;1044144;28;2674;-58
2022/09/11 03:14:07;;;;;;;;;;;;;;;;;;1044154;28;4057;-55
2022/09/11 03:14:37;;;;;;;;;;;;;;;;;;1048146;28;3005;-57
2022/09/11 03:15:09;;;;;;;;;;;;;;;;;;1042988;28;3915;-58
2022/09/11 03:15:42;;;;;;;;;;;;;;;;;;1044839;28;3611;-57
2022/09/11 03:16:12;;;;;;;;;;;;;;;;;;1043453;28;3896;-58
2022/09/11 03:16:42;;;;;;;;;;;;;;;;;;1044939;28;3171;-55
2022/09/11 03:17:13;;;;;;;;;;;;;;;;;;1045827;28;3810;-57
2022/09/11 03:17:43;;;;;;;;;;;;;;;;;;1048523;28;3369;-56
2022/09/11 03:18:14;;;;;;;;;;;;;;;;;;1046584;28;3839;-58
2022/09/11 03:18:45;;;;;;;;;;;;;;;;;;1045952;28;1774;-57
2022/09/11 03:19:15;;;;;;;;;;;;;;;;;;1042472;28;4139;-57
2022/09/11 03:19:45;;;;;;;;;;;;;;;;;;1043128;28;2774;-60
2022/09/11 03:20:15;;;;;;;;;;;;;;;;;;1041223;28;3886;-58
2022/09/11 03:20:46;;;;;;;;;;;;;;;;;;1046673;28;4087;-57
2022/09/11 03:21:16;;;;;;;;;;;;;;;;;;1046422;28;3865;-56
2022/09/11 03:21:46;;;;;;;;;;;;;;;;;;1047331;28;1574;-60
2022/09/11 03:22:17;;;;;;;;;;;;;;;;;;1045387;28;3910;-58
2022/09/11 03:22:47;;;;;;;;;;;;;;;;;;1045831;28;3865;-55
2022/09/11 03:23:17;;;;;;;;;;;;;;;;;;1046035;28;3894;-55
2022/09/11 03:23:48;;;;;;;;;;;;;;;;;;1047199;28;3772;-57
2022/09/11 03:24:18;;;;;;;;;;;;;;;;;;1044912;28;3906;-58
2022/09/11 03:24:48;;;;;;;;;;;;;;;;;;1048880;28;2546;-58
2022/09/11 03:25:19;;;;;;;;;;;;;;;;;;1044728;28;3912;-56
2022/09/11 03:25:49;;;;;;;;;;;;;;;;;;1045369;28;1289;-57
2022/09/11 03:26:19;;;;;;;;;;;;;;;;;;1040598;28;4185;-57
2022/09/11 03:26:50;;;;;;;;;;;;;;;;;;1044030;28;2527;-55
2022/09/11 03:27:20;;;;;;;;;;;;;;;;;;1040689;28;3896;-59
2022/09/11 03:27:51;;;;;;;;;;;;;;;;;;1050197;28;2023;-58
2022/09/11 03:28:29;;;;;;;;;;;;;;;;;;1043759;28;3922;-56
2022/09/11 03:29:07;;;;;;;;;;;;;;;;;;1046142;28;3929;-58
2022/09/11 03:29:44;;;;;;;;;;;;;;;;;;1050069;28;4208;-57
2022/09/11 03:30:14;;;;;;;;;;;;;;;;;;1045805;28;3926;-57
2022/09/11 03:30:44;;;;;;;;;;;;;;;;;;1049543;28;1524;-56
2022/09/11 03:31:15;;;;;;;;;;;;;;;;;;1045902;28;4143;-57
2022/09/11 03:31:46;;;;;;;;;;;;;;;;;;1048237;28;1660;-57
2022/09/11 03:32:16;;;;;;;;;;;;;;;;;;1043697;28;4428;-56
2022/09/11 03:32:47;;;;;;;;;;;;;;;;;;1047815;28;1616;-58
2022/09/11 03:33:17;;;;;;;;;;;;;;;;;;1044588;28;4031;-58
2022/09/11 03:33:47;;;;;;;;;;;;;;;;;;1048545;28;3458;-59
2022/09/11 03:34:18;;;;;;;;;;;;;;;;;;1047455;28;3937;-57
2022/09/11 03:34:49;;;;;;;;;;;;;;;;;;1048180;28;3246;-56
2022/09/11 03:35:20;;;;;;;;;;;;;;;;;;1042167;28;4058;-57
2022/09/11 03:35:50;;;;;;;;;;;;;;;;;;1045921;28;3182;-57
2022/09/11 03:36:21;;;;;;;;;;;;;;;;;;1042954;28;4070;-57
2022/09/11 03:36:54;;;;;;;;;;;;;;;;;;1043753;28;2873;-59
2022/09/11 03:37:25;;;;;;;;;;;;;;;;;;1041501;28;4143;-59
2022/09/11 03:37:56;;;;;;;;;;;;;;;;;;1043905;28;3578;-58
2022/09/11 03:38:26;;;;;;;;;;;;;;;;;;1043058;28;3960;-58
2022/09/11 03:38:57;;;;;;;;;;;;;;;;;;1048856;28;3777;-59
2022/09/11 03:39:27;;;;;;;;;;;;;;;;;;1045953;28;3904;-58
2022/09/11 03:40:00;;;;;;;;;;;;;;;;;;1047168;28;3901;-57
2022/09/11 03:40:30;;;;;;;;;;;;;;;;;;1047953;28;3577;-56
2022/09/11 03:41:02;;;;;;;;;;;;;;;;;;1047640;28;4225;-56
2022/09/11 03:41:32;;;;;;;;;;;;;;;;;;1047211;28;3039;-57
2022/09/11 03:42:02;;;;;;;;;;;;;;;;;;1047289;28;4150;-57
2022/09/11 03:42:33;;;;;;;;;;;;;;;;;;1048513;28;3858;-56
2022/09/11 03:43:03;;;;;;;;;;;;;;;;;;1046857;28;4091;-58
2022/09/11 03:43:34;;;;;;;;;;;;;;;;;;1048338;28;2974;-57
2022/09/11 03:44:04;;;;;;;;;;;;;;;;;;1034800;28;3937;-55
2022/09/11 03:44:35;;;;;;;;;;;;;;;;;;1037784;28;4097;-57
2022/09/11 03:45:05;;;;;;;;;;;;;;;;;;1034567;28;3986;-57
2022/09/11 03:45:36;;;;;;;;;;;;;;;;;;1035594;28;4677;-56
2022/09/11 03:46:06;;;;;;;;;;;;;;;;;;1046969;28;3897;-59
2022/09/11 03:46:37;;;;;;;;;;;;;;;;;;1048064;28;3073;-59
2022/09/11 03:47:07;;;;;;;;;;;;;;;;;;1045957;28;3885;-58
2022/09/11 03:47:39;;;;;;;;;;;;;;;;;;1048507;28;2790;-57
2022/09/11 03:48:09;;;;;;;;;;;;;;;;;;1046112;28;4122;-58
2022/09/11 03:48:39;;;;;;;;;;;;;;;;;;1046514;28;3007;-58
2022/09/11 03:49:10;;;;;;;;;;;;;;;;;;1038980;28;4101;-58
2022/09/11 03:49:40;;;;;;;;;;;;;;;;;;1042024;28;3186;-57
2022/09/11 03:50:11;;;;;;;;;;;;;;;;;;1035676;28;4316;-57
2022/09/11 03:50:44;;;;;;;;;;;;;;;;;;1043585;28;1779;-57
2022/09/11 03:51:14;;;;;;;;;;;;;;;;;;1044370;28;3835;-57
2022/09/11 03:51:46;;;;;;;;;;;;;;;;;;1042202;28;3619;-56
2022/09/11 03:52:16;;;;;;;;;;;;;;;;;;1042749;28;3916;-56
2022/09/11 03:52:46;;;;;;;;;;;;;;;;;;1046076;28;2036;-59
2022/09/11 03:53:17;;;;;;;;;;;;;;;;;;1042892;28;3990;-59
2022/09/11 03:53:48;;;;;;;;;;;;;;;;;;1043942;28;2678;-52
2022/09/11 03:54:19;;;;;;;;;;;;;;;;;;1042432;28;4421;-58
2022/09/11 03:54:50;;;;;;;;;;;;;;;;;;1046109;28;1982;-57